<?xml version="1.0" encoding="UTF-8" standalone="no" ?><gpx xmlns="http://www.topografix.com/GPX/1/1" xmlns:gpxx="http://www.garmin.com/xmlschemas/GpxExtensions/v3" xmlns:wptx1="http://www.garmin.com/xmlschemas/WaypointExtension/v1" xmlns:gpxtpx="http://www.garmin.com/xmlschemas/TrackPointExtension/v1" creator="Dakota 20" version="1.1" xmlns:xsi="http://www.w3.org/2001/XMLSchema-instance" xsi:schemaLocation="http://www.topografix.com/GPX/1/1 http://www.topografix.com/GPX/1/1/gpx.xsd http://www.garmin.com/xmlschemas/GpxExtensions/v3 http://www8.garmin.com/xmlschemas/GpxExtensionsv3.xsd http://www.garmin.com/xmlschemas/WaypointExtension/v1 http://www8.garmin.com/xmlschemas/WaypointExtensionv1.xsd http://www.garmin.com/xmlschemas/TrackPointExtension/v1 http://www.garmin.com/xmlschemas/TrackPointExtensionv1.xsd"><metadata><link href="http://www.garmin.com"><text>Garmin International</text></link><time>2017-02-08T17:09:41Z</time></metadata><trk><name>Current Track: 08 FEB 2017 09:55</name><extensions><gpxx:TrackExtension><gpxx:DisplayColor>Cyan</gpxx:DisplayColor></gpxx:TrackExtension></extensions><trkseg><trkpt lat="51.8297460303" lon="-1.8370153662"><ele>164.04</ele><time>2017-02-08T09:55:26Z</time></trkpt><trkpt lat="51.8297534902" lon="-1.8369913101"><ele>163.08</ele><time>2017-02-08T09:55:41Z</time></trkpt><trkpt lat="51.8297657277" lon="-1.8369299546"><ele>162.60</ele><time>2017-02-08T09:55:45Z</time></trkpt><trkpt lat="51.8297520652" lon="-1.8367469776"><ele>162.60</ele><time>2017-02-08T09:56:00Z</time></trkpt><trkpt lat="51.8296556734" lon="-1.8367191497"><ele>162.60</ele><time>2017-02-08T09:56:04Z</time></trkpt><trkpt lat="51.8294798210" lon="-1.8366790004"><ele>162.12</ele><time>2017-02-08T09:56:19Z</time></trkpt><trkpt lat="51.8294003606" lon="-1.8368034717"><ele>162.60</ele><time>2017-02-08T09:56:35Z</time></trkpt><trkpt lat="51.8293980137" lon="-1.8368174694"><ele>163.08</ele><time>2017-02-08T09:56:53Z</time></trkpt><trkpt lat="51.8293812498" lon="-1.8368468899"><ele>163.08</ele><time>2017-02-08T09:57:13Z</time></trkpt><trkpt lat="51.8293731194" lon="-1.8368564453"><ele>163.56</ele><time>2017-02-08T09:57:39Z</time></trkpt><trkpt lat="51.8293030467" lon="-1.8368509132"><ele>163.08</ele><time>2017-02-08T09:58:08Z</time></trkpt><trkpt lat="51.8293092493" lon="-1.8368543498"><ele>163.08</ele><time>2017-02-08T09:58:28Z</time></trkpt><trkpt lat="51.8293405138" lon="-1.8368874583"><ele>163.08</ele><time>2017-02-08T09:58:51Z</time></trkpt><trkpt lat="51.8292457983" lon="-1.8368898053"><ele>163.56</ele><time>2017-02-08T09:59:11Z</time></trkpt><trkpt lat="51.8292981014" lon="-1.8369594589"><ele>163.08</ele><time>2017-02-08T09:59:36Z</time></trkpt><trkpt lat="51.8293445371" lon="-1.8369498197"><ele>163.08</ele><time>2017-02-08T09:59:59Z</time></trkpt><trkpt lat="51.8293932360" lon="-1.8369165435"><ele>163.08</ele><time>2017-02-08T10:00:24Z</time></trkpt><trkpt lat="51.8294036295" lon="-1.8369086646"><ele>163.08</ele><time>2017-02-08T10:00:51Z</time></trkpt><trkpt lat="51.8293083273" lon="-1.8369233329"><ele>162.60</ele><time>2017-02-08T10:01:14Z</time></trkpt><trkpt lat="51.8294058926" lon="-1.8369791564"><ele>164.04</ele><time>2017-02-08T10:01:37Z</time></trkpt><trkpt lat="51.8294026237" lon="-1.8371731974"><ele>164.04</ele><time>2017-02-08T10:01:53Z</time></trkpt><trkpt lat="51.8294193037" lon="-1.8372674100"><ele>165.00</ele><time>2017-02-08T10:01:59Z</time></trkpt><trkpt lat="51.8293745443" lon="-1.8374888599"><ele>165.00</ele><time>2017-02-08T10:02:16Z</time></trkpt><trkpt lat="51.8292110134" lon="-1.8375890236"><ele>164.04</ele><time>2017-02-08T10:02:32Z</time></trkpt><trkpt lat="51.8290427886" lon="-1.8377237208"><ele>163.56</ele><time>2017-02-08T10:02:50Z</time></trkpt><trkpt lat="51.8288660143" lon="-1.8378550652"><ele>163.08</ele><time>2017-02-08T10:03:08Z</time></trkpt><trkpt lat="51.8287985399" lon="-1.8380475137"><ele>163.56</ele><time>2017-02-08T10:03:25Z</time></trkpt><trkpt lat="51.8287904933" lon="-1.8382107932"><ele>163.56</ele><time>2017-02-08T10:03:37Z</time></trkpt><trkpt lat="51.8287723046" lon="-1.8384852167"><ele>163.08</ele><time>2017-02-08T10:03:54Z</time></trkpt><trkpt lat="51.8288151361" lon="-1.8385779206"><ele>164.04</ele><time>2017-02-08T10:04:03Z</time></trkpt><trkpt lat="51.8290064950" lon="-1.8385573011"><ele>165.96</ele><time>2017-02-08T10:04:24Z</time></trkpt><trkpt lat="51.8290474825" lon="-1.8387688603"><ele>166.45</ele><time>2017-02-08T10:04:38Z</time></trkpt><trkpt lat="51.8290447164" lon="-1.8388183136"><ele>167.41</ele><time>2017-02-08T10:04:41Z</time></trkpt><trkpt lat="51.8290493265" lon="-1.8389817607"><ele>166.93</ele><time>2017-02-08T10:04:57Z</time></trkpt><trkpt lat="51.8290581275" lon="-1.8390945811"><ele>167.41</ele><time>2017-02-08T10:05:14Z</time></trkpt><trkpt lat="51.8291890528" lon="-1.8392141070"><ele>167.41</ele><time>2017-02-08T10:05:33Z</time></trkpt><trkpt lat="51.8292506598" lon="-1.8392573576"><ele>167.89</ele><time>2017-02-08T10:05:50Z</time></trkpt><trkpt lat="51.8294208962" lon="-1.8393109180"><ele>169.33</ele><time>2017-02-08T10:06:06Z</time></trkpt><trkpt lat="51.8294902146" lon="-1.8393424340"><ele>169.33</ele><time>2017-02-08T10:06:13Z</time></trkpt><trkpt lat="51.8296621274" lon="-1.8393909652"><ele>170.29</ele><time>2017-02-08T10:06:32Z</time></trkpt><trkpt lat="51.8297575135" lon="-1.8394283485"><ele>171.25</ele><time>2017-02-08T10:06:44Z</time></trkpt><trkpt lat="51.8297920469" lon="-1.8394669052"><ele>171.25</ele><time>2017-02-08T10:07:05Z</time></trkpt><trkpt lat="51.8297969922" lon="-1.8394730240"><ele>170.29</ele><time>2017-02-08T10:07:32Z</time></trkpt><trkpt lat="51.8298027758" lon="-1.8394470401"><ele>171.25</ele><time>2017-02-08T10:07:50Z</time></trkpt><trkpt lat="51.8297421746" lon="-1.8394098245"><ele>170.29</ele><time>2017-02-08T10:08:06Z</time></trkpt><trkpt lat="51.8296718504" lon="-1.8393948209"><ele>170.29</ele><time>2017-02-08T10:08:12Z</time></trkpt><trkpt lat="51.8295503967" lon="-1.8393591139"><ele>169.81</ele><time>2017-02-08T10:08:26Z</time></trkpt><trkpt lat="51.8295212276" lon="-1.8393463735"><ele>169.81</ele><time>2017-02-08T10:08:30Z</time></trkpt><trkpt lat="51.8293630611" lon="-1.8392619677"><ele>168.37</ele><time>2017-02-08T10:08:46Z</time></trkpt><trkpt lat="51.8292364944" lon="-1.8392155319"><ele>167.41</ele><time>2017-02-08T10:09:02Z</time></trkpt><trkpt lat="51.8291541003" lon="-1.8392060604"><ele>166.45</ele><time>2017-02-08T10:09:19Z</time></trkpt><trkpt lat="51.8290951755" lon="-1.8391848542"><ele>166.93</ele><time>2017-02-08T10:09:36Z</time></trkpt><trkpt lat="51.8290630728" lon="-1.8390525039"><ele>166.45</ele><time>2017-02-08T10:09:56Z</time></trkpt><trkpt lat="51.8290552776" lon="-1.8389758095"><ele>166.45</ele><time>2017-02-08T10:10:01Z</time></trkpt><trkpt lat="51.8290710356" lon="-1.8387939222"><ele>166.93</ele><time>2017-02-08T10:10:12Z</time></trkpt><trkpt lat="51.8290535174" lon="-1.8385935109"><ele>165.00</ele><time>2017-02-08T10:10:29Z</time></trkpt><trkpt lat="51.8290286232" lon="-1.8385863863"><ele>165.48</ele><time>2017-02-08T10:10:31Z</time></trkpt><trkpt lat="51.8288701214" lon="-1.8385700416"><ele>164.04</ele><time>2017-02-08T10:10:46Z</time></trkpt><trkpt lat="51.8288147170" lon="-1.8385757413"><ele>163.08</ele><time>2017-02-08T10:10:53Z</time></trkpt><trkpt lat="51.8286679499" lon="-1.8386935908"><ele>163.08</ele><time>2017-02-08T10:11:08Z</time></trkpt><trkpt lat="51.8285434786" lon="-1.8388036452"><ele>163.56</ele><time>2017-02-08T10:11:24Z</time></trkpt><trkpt lat="51.8283443246" lon="-1.8388675991"><ele>164.04</ele><time>2017-02-08T10:11:42Z</time></trkpt><trkpt lat="51.8282367010" lon="-1.8388506677"><ele>164.04</ele><time>2017-02-08T10:11:52Z</time></trkpt><trkpt lat="51.8280692305" lon="-1.8389025517"><ele>164.52</ele><time>2017-02-08T10:12:07Z</time></trkpt><trkpt lat="51.8278659694" lon="-1.8390288670"><ele>165.96</ele><time>2017-02-08T10:12:29Z</time></trkpt><trkpt lat="51.8277228903" lon="-1.8391882069"><ele>167.41</ele><time>2017-02-08T10:12:48Z</time></trkpt><trkpt lat="51.8276170269" lon="-1.8392937351"><ele>168.85</ele><time>2017-02-08T10:13:05Z</time></trkpt><trkpt lat="51.8275061343" lon="-1.8394140992"><ele>170.77</ele><time>2017-02-08T10:13:22Z</time></trkpt><trkpt lat="51.8273526616" lon="-1.8394873571"><ele>172.21</ele><time>2017-02-08T10:13:40Z</time></trkpt><trkpt lat="51.8272285257" lon="-1.8395182863"><ele>174.14</ele><time>2017-02-08T10:13:55Z</time></trkpt><trkpt lat="51.8270467222" lon="-1.8396859244"><ele>175.58</ele><time>2017-02-08T10:14:13Z</time></trkpt><trkpt lat="51.8269010447" lon="-1.8398512993"><ele>177.98</ele><time>2017-02-08T10:14:33Z</time></trkpt><trkpt lat="51.8269007932" lon="-1.8398566637"><ele>177.50</ele><time>2017-02-08T10:14:34Z</time></trkpt><trkpt lat="51.8268973567" lon="-1.8398839049"><ele>177.98</ele><time>2017-02-08T10:14:36Z</time></trkpt><trkpt lat="51.8268732168" lon="-1.8399314303"><ele>177.50</ele><time>2017-02-08T10:14:39Z</time></trkpt><trkpt lat="51.8266899884" lon="-1.8401059415"><ele>180.38</ele><time>2017-02-08T10:14:56Z</time></trkpt><trkpt lat="51.8265140522" lon="-1.8403439876"><ele>182.31</ele><time>2017-02-08T10:15:15Z</time></trkpt><trkpt lat="51.8263641000" lon="-1.8405248690"><ele>184.23</ele><time>2017-02-08T10:15:31Z</time></trkpt><trkpt lat="51.8262054306" lon="-1.8406895734"><ele>185.67</ele><time>2017-02-08T10:15:47Z</time></trkpt><trkpt lat="51.8260748405" lon="-1.8408440519"><ele>187.11</ele><time>2017-02-08T10:16:02Z</time></trkpt><trkpt lat="51.8259113096" lon="-1.8410178926"><ele>188.08</ele><time>2017-02-08T10:16:19Z</time></trkpt><trkpt lat="51.8257458508" lon="-1.8412007857"><ele>190.00</ele><time>2017-02-08T10:16:36Z</time></trkpt><trkpt lat="51.8256049510" lon="-1.8413732853"><ele>191.92</ele><time>2017-02-08T10:16:51Z</time></trkpt><trkpt lat="51.8254933041" lon="-1.8414646480"><ele>191.92</ele><time>2017-02-08T10:17:02Z</time></trkpt><trkpt lat="51.8253428489" lon="-1.8415812403"><ele>192.88</ele><time>2017-02-08T10:17:18Z</time></trkpt><trkpt lat="51.8253577687" lon="-1.8416322861"><ele>193.36</ele><time>2017-02-08T10:17:31Z</time></trkpt><trkpt lat="51.8253676593" lon="-1.8416128401"><ele>192.40</ele><time>2017-02-08T10:18:01Z</time></trkpt><trkpt lat="51.8253705930" lon="-1.8416076433"><ele>192.88</ele><time>2017-02-08T10:18:31Z</time></trkpt><trkpt lat="51.8253413402" lon="-1.8415767141"><ele>192.88</ele><time>2017-02-08T10:18:46Z</time></trkpt><trkpt lat="51.8252906296" lon="-1.8415957410"><ele>192.88</ele><time>2017-02-08T10:18:51Z</time></trkpt><trkpt lat="51.8251074012" lon="-1.8417277560"><ele>194.32</ele><time>2017-02-08T10:19:09Z</time></trkpt><trkpt lat="51.8249640707" lon="-1.8418123294"><ele>194.80</ele><time>2017-02-08T10:19:26Z</time></trkpt><trkpt lat="51.8248037249" lon="-1.8419030216"><ele>195.77</ele><time>2017-02-08T10:19:43Z</time></trkpt><trkpt lat="51.8246471509" lon="-1.8419901095"><ele>195.77</ele><time>2017-02-08T10:20:01Z</time></trkpt><trkpt lat="51.8244817760" lon="-1.8420575839"><ele>195.28</ele><time>2017-02-08T10:20:18Z</time></trkpt><trkpt lat="51.8242846336" lon="-1.8421036843"><ele>196.25</ele><time>2017-02-08T10:20:38Z</time></trkpt><trkpt lat="51.8241424765" lon="-1.8421632797"><ele>196.25</ele><time>2017-02-08T10:20:55Z</time></trkpt><trkpt lat="51.8239859864" lon="-1.8422348611"><ele>196.73</ele><time>2017-02-08T10:21:14Z</time></trkpt><trkpt lat="51.8239175901" lon="-1.8422376271"><ele>196.25</ele><time>2017-02-08T10:21:31Z</time></trkpt><trkpt lat="51.8237343617" lon="-1.8422484398"><ele>195.77</ele><time>2017-02-08T10:21:48Z</time></trkpt><trkpt lat="51.8235747702" lon="-1.8422586657"><ele>195.77</ele><time>2017-02-08T10:22:06Z</time></trkpt><trkpt lat="51.8234244827" lon="-1.8422875833"><ele>195.77</ele><time>2017-02-08T10:22:21Z</time></trkpt><trkpt lat="51.8232410867" lon="-1.8423244637"><ele>194.80</ele><time>2017-02-08T10:22:39Z</time></trkpt><trkpt lat="51.8231088202" lon="-1.8423422333"><ele>195.28</ele><time>2017-02-08T10:22:55Z</time></trkpt><trkpt lat="51.8229479715" lon="-1.8423607573"><ele>194.32</ele><time>2017-02-08T10:23:11Z</time></trkpt><trkpt lat="51.8228051439" lon="-1.8423787784"><ele>194.32</ele><time>2017-02-08T10:23:26Z</time></trkpt><trkpt lat="51.8226527609" lon="-1.8423868250"><ele>193.84</ele><time>2017-02-08T10:23:41Z</time></trkpt><trkpt lat="51.8224776629" lon="-1.8424229510"><ele>193.84</ele><time>2017-02-08T10:23:59Z</time></trkpt><trkpt lat="51.8223225139" lon="-1.8423997331"><ele>192.88</ele><time>2017-02-08T10:24:15Z</time></trkpt><trkpt lat="51.8221699633" lon="-1.8424040079"><ele>192.40</ele><time>2017-02-08T10:24:30Z</time></trkpt><trkpt lat="51.8220290635" lon="-1.8424211070"><ele>191.44</ele><time>2017-02-08T10:24:45Z</time></trkpt><trkpt lat="51.8219134770" lon="-1.8425845541"><ele>190.48</ele><time>2017-02-08T10:25:03Z</time></trkpt><trkpt lat="51.8219008204" lon="-1.8426742405"><ele>191.44</ele><time>2017-02-08T10:25:09Z</time></trkpt><trkpt lat="51.8218663707" lon="-1.8430083431"><ele>191.44</ele><time>2017-02-08T10:25:30Z</time></trkpt><trkpt lat="51.8218382075" lon="-1.8432384264"><ele>191.44</ele><time>2017-02-08T10:25:46Z</time></trkpt><trkpt lat="51.8218184263" lon="-1.8434447888"><ele>191.92</ele><time>2017-02-08T10:26:00Z</time></trkpt><trkpt lat="51.8217910174" lon="-1.8437243253"><ele>191.44</ele><time>2017-02-08T10:26:18Z</time></trkpt><trkpt lat="51.8217612617" lon="-1.8440083042"><ele>191.92</ele><time>2017-02-08T10:26:37Z</time></trkpt><trkpt lat="51.8217439111" lon="-1.8442616053"><ele>191.92</ele><time>2017-02-08T10:26:53Z</time></trkpt><trkpt lat="51.8217250519" lon="-1.8445339333"><ele>191.92</ele><time>2017-02-08T10:27:11Z</time></trkpt><trkpt lat="51.8216858245" lon="-1.8448544573"><ele>191.92</ele><time>2017-02-08T10:27:31Z</time></trkpt><trkpt lat="51.8216691446" lon="-1.8451245222"><ele>191.92</ele><time>2017-02-08T10:27:49Z</time></trkpt><trkpt lat="51.8216392212" lon="-1.8454267737"><ele>190.48</ele><time>2017-02-08T10:28:09Z</time></trkpt><trkpt lat="51.8216112256" lon="-1.8457155302"><ele>189.52</ele><time>2017-02-08T10:28:29Z</time></trkpt><trkpt lat="51.8215772789" lon="-1.8459873553"><ele>188.56</ele><time>2017-02-08T10:28:48Z</time></trkpt><trkpt lat="51.8215535581" lon="-1.8460494652"><ele>188.08</ele><time>2017-02-08T10:29:01Z</time></trkpt><trkpt lat="51.8215480261" lon="-1.8462057039"><ele>188.56</ele><time>2017-02-08T10:29:20Z</time></trkpt><trkpt lat="51.8215456791" lon="-1.8462772015"><ele>188.56</ele><time>2017-02-08T10:29:41Z</time></trkpt><trkpt lat="51.8215131573" lon="-1.8465852365"><ele>188.08</ele><time>2017-02-08T10:30:01Z</time></trkpt><trkpt lat="51.8214992434" lon="-1.8467667047"><ele>188.08</ele><time>2017-02-08T10:30:20Z</time></trkpt><trkpt lat="51.8215051107" lon="-1.8469052576"><ele>188.56</ele><time>2017-02-08T10:30:37Z</time></trkpt><trkpt lat="51.8214996625" lon="-1.8469512742"><ele>188.08</ele><time>2017-02-08T10:30:40Z</time></trkpt><trkpt lat="51.8214682303" lon="-1.8472295534"><ele>189.52</ele><time>2017-02-08T10:30:58Z</time></trkpt><trkpt lat="51.8214314338" lon="-1.8475305475"><ele>190.00</ele><time>2017-02-08T10:31:16Z</time></trkpt><trkpt lat="51.8214280810" lon="-1.8476074934"><ele>190.00</ele><time>2017-02-08T10:31:32Z</time></trkpt><trkpt lat="51.8214006722" lon="-1.8479246646"><ele>190.00</ele><time>2017-02-08T10:31:50Z</time></trkpt><trkpt lat="51.8213638756" lon="-1.8482481223"><ele>190.48</ele><time>2017-02-08T10:32:09Z</time></trkpt><trkpt lat="51.8213450164" lon="-1.8485093862"><ele>190.96</ele><time>2017-02-08T10:32:24Z</time></trkpt><trkpt lat="51.8213163503" lon="-1.8486963864"><ele>191.44</ele><time>2017-02-08T10:32:37Z</time></trkpt><trkpt lat="51.8213201221" lon="-1.8487438280"><ele>190.48</ele><time>2017-02-08T10:32:53Z</time></trkpt><trkpt lat="51.8213036936" lon="-1.8490290642"><ele>190.48</ele><time>2017-02-08T10:33:08Z</time></trkpt><trkpt lat="51.8212975748" lon="-1.8492806889"><ele>191.44</ele><time>2017-02-08T10:33:23Z</time></trkpt><trkpt lat="51.8213024363" lon="-1.8493772484"><ele>192.40</ele><time>2017-02-08T10:33:39Z</time></trkpt><trkpt lat="51.8212496303" lon="-1.8495309725"><ele>191.92</ele><time>2017-02-08T10:33:57Z</time></trkpt><trkpt lat="51.8212050386" lon="-1.8497721199"><ele>192.40</ele><time>2017-02-08T10:34:14Z</time></trkpt><trkpt lat="51.8211799767" lon="-1.8498500716"><ele>191.92</ele><time>2017-02-08T10:34:33Z</time></trkpt><trkpt lat="51.8211929686" lon="-1.8499098346"><ele>192.40</ele><time>2017-02-08T10:34:42Z</time></trkpt><trkpt lat="51.8211196270" lon="-1.8500651512"><ele>191.92</ele><time>2017-02-08T10:34:59Z</time></trkpt><trkpt lat="51.8211220577" lon="-1.8500807416"><ele>191.92</ele><time>2017-02-08T10:35:00Z</time></trkpt><trkpt lat="51.8210957386" lon="-1.8503544107"><ele>192.40</ele><time>2017-02-08T10:35:20Z</time></trkpt><trkpt lat="51.8210857641" lon="-1.8505616952"><ele>192.88</ele><time>2017-02-08T10:35:36Z</time></trkpt><trkpt lat="51.8210658990" lon="-1.8507863302"><ele>192.88</ele><time>2017-02-08T10:35:53Z</time></trkpt><trkpt lat="51.8210417591" lon="-1.8509206921"><ele>192.88</ele><time>2017-02-08T10:36:11Z</time></trkpt><trkpt lat="51.8210341316" lon="-1.8511692993"><ele>193.36</ele><time>2017-02-08T10:36:29Z</time></trkpt><trkpt lat="51.8210311141" lon="-1.8513034936"><ele>193.36</ele><time>2017-02-08T10:36:39Z</time></trkpt><trkpt lat="51.8210087344" lon="-1.8514985405"><ele>193.84</ele><time>2017-02-08T10:36:53Z</time></trkpt><trkpt lat="51.8209855165" lon="-1.8517686054"><ele>193.84</ele><time>2017-02-08T10:37:10Z</time></trkpt><trkpt lat="51.8209537491" lon="-1.8520198110"><ele>194.32</ele><time>2017-02-08T10:37:27Z</time></trkpt><trkpt lat="51.8209278490" lon="-1.8522498105"><ele>194.32</ele><time>2017-02-08T10:37:43Z</time></trkpt><trkpt lat="51.8209223170" lon="-1.8522990961"><ele>194.32</ele><time>2017-02-08T10:37:47Z</time></trkpt><trkpt lat="51.8208950758" lon="-1.8525439315"><ele>194.80</ele><time>2017-02-08T10:38:03Z</time></trkpt><trkpt lat="51.8208623026" lon="-1.8528295867"><ele>194.80</ele><time>2017-02-08T10:38:21Z</time></trkpt><trkpt lat="51.8208237458" lon="-1.8531193491"><ele>194.80</ele><time>2017-02-08T10:38:39Z</time></trkpt><trkpt lat="51.8207977619" lon="-1.8533962872"><ele>194.80</ele><time>2017-02-08T10:38:57Z</time></trkpt><trkpt lat="51.8207998574" lon="-1.8535196688"><ele>195.77</ele><time>2017-02-08T10:39:12Z</time></trkpt><trkpt lat="51.8207798246" lon="-1.8536844570"><ele>195.28</ele><time>2017-02-08T10:39:25Z</time></trkpt><trkpt lat="51.8207668327" lon="-1.8539418653"><ele>195.77</ele><time>2017-02-08T10:39:41Z</time></trkpt><trkpt lat="51.8207181338" lon="-1.8542405125"><ele>195.28</ele><time>2017-02-08T10:40:01Z</time></trkpt><trkpt lat="51.8206696026" lon="-1.8545103259"><ele>195.28</ele><time>2017-02-08T10:40:18Z</time></trkpt><trkpt lat="51.8206763081" lon="-1.8548212945"><ele>195.77</ele><time>2017-02-08T10:40:40Z</time></trkpt><trkpt lat="51.8207015377" lon="-1.8550655432"><ele>195.28</ele><time>2017-02-08T10:40:57Z</time></trkpt><trkpt lat="51.8207263481" lon="-1.8552038446"><ele>196.25</ele><time>2017-02-08T10:41:10Z</time></trkpt><trkpt lat="51.8208220694" lon="-1.8553971313"><ele>195.77</ele><time>2017-02-08T10:41:27Z</time></trkpt><trkpt lat="51.8209081516" lon="-1.8555894122"><ele>196.73</ele><time>2017-02-08T10:41:44Z</time></trkpt><trkpt lat="51.8209957425" lon="-1.8558285479"><ele>195.77</ele><time>2017-02-08T10:42:02Z</time></trkpt><trkpt lat="51.8210912962" lon="-1.8560579605"><ele>195.77</ele><time>2017-02-08T10:42:20Z</time></trkpt><trkpt lat="51.8211891130" lon="-1.8563072383"><ele>195.77</ele><time>2017-02-08T10:42:40Z</time></trkpt><trkpt lat="51.8212821521" lon="-1.8565771356"><ele>195.77</ele><time>2017-02-08T10:43:00Z</time></trkpt><trkpt lat="51.8213803880" lon="-1.8567942269"><ele>196.25</ele><time>2017-02-08T10:43:20Z</time></trkpt><trkpt lat="51.8214835692" lon="-1.8570658844"><ele>195.77</ele><time>2017-02-08T10:43:39Z</time></trkpt><trkpt lat="51.8215542287" lon="-1.8571840692"><ele>195.77</ele><time>2017-02-08T10:43:54Z</time></trkpt><trkpt lat="51.8216354493" lon="-1.8573662080"><ele>195.77</ele><time>2017-02-08T10:44:10Z</time></trkpt><trkpt lat="51.8217355292" lon="-1.8576093670"><ele>195.28</ele><time>2017-02-08T10:44:29Z</time></trkpt><trkpt lat="51.8217378762" lon="-1.8576134741"><ele>195.28</ele><time>2017-02-08T10:44:49Z</time></trkpt><trkpt lat="51.8217574060" lon="-1.8576494325"><ele>195.28</ele><time>2017-02-08T10:45:01Z</time></trkpt><trkpt lat="51.8218287360" lon="-1.8577502668"><ele>195.28</ele><time>2017-02-08T10:45:17Z</time></trkpt><trkpt lat="51.8218880799" lon="-1.8577621691"><ele>196.25</ele><time>2017-02-08T10:45:37Z</time></trkpt><trkpt lat="51.8220387027" lon="-1.8577391189"><ele>196.73</ele><time>2017-02-08T10:45:55Z</time></trkpt><trkpt lat="51.8221342564" lon="-1.8578569684"><ele>196.25</ele><time>2017-02-08T10:46:08Z</time></trkpt><trkpt lat="51.8222171534" lon="-1.8579493370"><ele>196.73</ele><time>2017-02-08T10:46:26Z</time></trkpt><trkpt lat="51.8223777507" lon="-1.8581272010"><ele>196.73</ele><time>2017-02-08T10:46:46Z</time></trkpt><trkpt lat="51.8225492444" lon="-1.8583095912"><ele>196.73</ele><time>2017-02-08T10:47:07Z</time></trkpt><trkpt lat="51.8227028009" lon="-1.8584777322"><ele>197.69</ele><time>2017-02-08T10:47:26Z</time></trkpt><trkpt lat="51.8228675053" lon="-1.8586415984"><ele>197.69</ele><time>2017-02-08T10:47:44Z</time></trkpt><trkpt lat="51.8229927309" lon="-1.8587977532"><ele>198.65</ele><time>2017-02-08T10:48:03Z</time></trkpt><trkpt lat="51.8231401686" lon="-1.8589511421"><ele>199.13</ele><time>2017-02-08T10:48:20Z</time></trkpt><trkpt lat="51.8232680764" lon="-1.8590949755"><ele>199.13</ele><time>2017-02-08T10:48:38Z</time></trkpt><trkpt lat="51.8234147597" lon="-1.8592525553"><ele>200.09</ele><time>2017-02-08T10:48:56Z</time></trkpt><trkpt lat="51.8235533126" lon="-1.8594223727"><ele>200.57</ele><time>2017-02-08T10:49:15Z</time></trkpt><trkpt lat="51.8236851599" lon="-1.8595944531"><ele>200.57</ele><time>2017-02-08T10:49:34Z</time></trkpt><trkpt lat="51.8238268141" lon="-1.8597379513"><ele>200.57</ele><time>2017-02-08T10:49:52Z</time></trkpt><trkpt lat="51.8239280675" lon="-1.8598185852"><ele>201.53</ele><time>2017-02-08T10:50:09Z</time></trkpt><trkpt lat="51.8239698932" lon="-1.8598998897"><ele>201.05</ele><time>2017-02-08T10:50:24Z</time></trkpt><trkpt lat="51.8241019081" lon="-1.8600428011"><ele>200.09</ele><time>2017-02-08T10:50:42Z</time></trkpt><trkpt lat="51.8241807818" lon="-1.8601391092"><ele>201.53</ele><time>2017-02-08T10:50:58Z</time></trkpt><trkpt lat="51.8243458215" lon="-1.8603333179"><ele>201.53</ele><time>2017-02-08T10:51:15Z</time></trkpt><trkpt lat="51.8245060835" lon="-1.8605318014"><ele>201.53</ele><time>2017-02-08T10:51:34Z</time></trkpt><trkpt lat="51.8245478254" lon="-1.8605796620"><ele>202.01</ele><time>2017-02-08T10:51:39Z</time></trkpt><trkpt lat="51.8246815167" lon="-1.8607377447"><ele>202.01</ele><time>2017-02-08T10:51:56Z</time></trkpt><trkpt lat="51.8247919902" lon="-1.8608848471"><ele>202.98</ele><time>2017-02-08T10:52:11Z</time></trkpt><trkpt lat="51.8249068223" lon="-1.8610288482"><ele>202.49</ele><time>2017-02-08T10:52:28Z</time></trkpt><trkpt lat="51.8250162061" lon="-1.8611618690"><ele>202.98</ele><time>2017-02-08T10:52:43Z</time></trkpt><trkpt lat="51.8251314573" lon="-1.8613376375"><ele>202.49</ele><time>2017-02-08T10:53:00Z</time></trkpt><trkpt lat="51.8252369855" lon="-1.8615876697"><ele>202.98</ele><time>2017-02-08T10:53:17Z</time></trkpt><trkpt lat="51.8253463693" lon="-1.8618065212"><ele>203.46</ele><time>2017-02-08T10:53:36Z</time></trkpt><trkpt lat="51.8254579324" lon="-1.8619925156"><ele>202.98</ele><time>2017-02-08T10:53:53Z</time></trkpt><trkpt lat="51.8255511392" lon="-1.8621974532"><ele>202.49</ele><time>2017-02-08T10:54:10Z</time></trkpt><trkpt lat="51.8256248161" lon="-1.8623886444"><ele>203.94</ele><time>2017-02-08T10:54:25Z</time></trkpt><trkpt lat="51.8257046118" lon="-1.8626535963"><ele>203.46</ele><time>2017-02-08T10:54:44Z</time></trkpt><trkpt lat="51.8257336970" lon="-1.8627201486"><ele>203.46</ele><time>2017-02-08T10:54:49Z</time></trkpt><trkpt lat="51.8257875927" lon="-1.8629682530"><ele>203.46</ele><time>2017-02-08T10:55:05Z</time></trkpt><trkpt lat="51.8258702382" lon="-1.8632011022"><ele>202.49</ele><time>2017-02-08T10:55:23Z</time></trkpt><trkpt lat="51.8259217869" lon="-1.8633143418"><ele>202.98</ele><time>2017-02-08T10:55:38Z</time></trkpt><trkpt lat="51.8259843998" lon="-1.8632389884"><ele>202.98</ele><time>2017-02-08T10:55:52Z</time></trkpt><trkpt lat="51.8261503614" lon="-1.8631460331"><ele>203.46</ele><time>2017-02-08T10:56:08Z</time></trkpt><trkpt lat="51.8261783570" lon="-1.8631356396"><ele>202.49</ele><time>2017-02-08T10:56:11Z</time></trkpt><trkpt lat="51.8262746651" lon="-1.8630878627"><ele>202.49</ele><time>2017-02-08T10:56:25Z</time></trkpt><trkpt lat="51.8264423870" lon="-1.8630198855"><ele>202.98</ele><time>2017-02-08T10:56:42Z</time></trkpt><trkpt lat="51.8266082648" lon="-1.8629454542"><ele>202.49</ele><time>2017-02-08T10:56:59Z</time></trkpt><trkpt lat="51.8267513439" lon="-1.8628564384"><ele>202.98</ele><time>2017-02-08T10:57:15Z</time></trkpt><trkpt lat="51.8267751485" lon="-1.8628543429"><ele>202.98</ele><time>2017-02-08T10:57:22Z</time></trkpt><trkpt lat="51.8268950097" lon="-1.8628638983"><ele>203.46</ele><time>2017-02-08T10:57:42Z</time></trkpt><trkpt lat="51.8270046450" lon="-1.8628205638"><ele>202.98</ele><time>2017-02-08T10:58:01Z</time></trkpt><trkpt lat="51.8270100933" lon="-1.8628168758"><ele>202.01</ele><time>2017-02-08T10:58:25Z</time></trkpt><trkpt lat="51.8270287849" lon="-1.8628185522"><ele>202.98</ele><time>2017-02-08T10:58:47Z</time></trkpt><trkpt lat="51.8270272762" lon="-1.8628328014"><ele>202.98</ele><time>2017-02-08T10:59:10Z</time></trkpt><trkpt lat="51.8270183913" lon="-1.8628322985"><ele>202.98</ele><time>2017-02-08T10:59:33Z</time></trkpt><trkpt lat="51.8270247616" lon="-1.8628427759"><ele>202.98</ele><time>2017-02-08T11:00:03Z</time></trkpt><trkpt lat="51.8270093389" lon="-1.8628496490"><ele>202.49</ele><time>2017-02-08T11:00:26Z</time></trkpt><trkpt lat="51.8269970175" lon="-1.8628265150"><ele>202.98</ele><time>2017-02-08T11:00:45Z</time></trkpt><trkpt lat="51.8269975204" lon="-1.8628264312"><ele>202.98</ele><time>2017-02-08T11:01:15Z</time></trkpt><trkpt lat="51.8269996997" lon="-1.8628132716"><ele>202.98</ele><time>2017-02-08T11:01:46Z</time></trkpt><trkpt lat="51.8270028848" lon="-1.8628076557"><ele>203.46</ele><time>2017-02-08T11:02:14Z</time></trkpt><trkpt lat="51.8270023819" lon="-1.8628074881"><ele>202.98</ele><time>2017-02-08T11:02:43Z</time></trkpt><trkpt lat="51.8270016275" lon="-1.8628069852"><ele>203.46</ele><time>2017-02-08T11:03:11Z</time></trkpt><trkpt lat="51.8270024657" lon="-1.8628079072"><ele>203.46</ele><time>2017-02-08T11:03:45Z</time></trkpt><trkpt lat="51.8270020466" lon="-1.8628089130"><ele>203.46</ele><time>2017-02-08T11:04:10Z</time></trkpt><trkpt lat="51.8270015437" lon="-1.8628108408"><ele>202.98</ele><time>2017-02-08T11:04:43Z</time></trkpt><trkpt lat="51.8270045612" lon="-1.8628162891"><ele>203.46</ele><time>2017-02-08T11:05:02Z</time></trkpt><trkpt lat="51.8270096742" lon="-1.8628135230"><ele>203.94</ele><time>2017-02-08T11:05:24Z</time></trkpt><trkpt lat="51.8270126078" lon="-1.8628067337"><ele>203.46</ele><time>2017-02-08T11:05:45Z</time></trkpt><trkpt lat="51.8270147033" lon="-1.8628071528"><ele>203.94</ele><time>2017-02-08T11:06:06Z</time></trkpt><trkpt lat="51.8270156253" lon="-1.8628058955"><ele>203.46</ele><time>2017-02-08T11:06:35Z</time></trkpt><trkpt lat="51.8270164635" lon="-1.8628058117"><ele>203.94</ele><time>2017-02-08T11:07:00Z</time></trkpt><trkpt lat="51.8270174693" lon="-1.8628048059"><ele>203.94</ele><time>2017-02-08T11:07:28Z</time></trkpt><trkpt lat="51.8270197324" lon="-1.8628019560"><ele>203.94</ele><time>2017-02-08T11:07:48Z</time></trkpt><trkpt lat="51.8270209059" lon="-1.8628001120"><ele>203.94</ele><time>2017-02-08T11:08:15Z</time></trkpt><trkpt lat="51.8270227499" lon="-1.8627992738"><ele>204.42</ele><time>2017-02-08T11:08:44Z</time></trkpt><trkpt lat="51.8270674255" lon="-1.8627580348"><ele>203.46</ele><time>2017-02-08T11:08:54Z</time></trkpt><trkpt lat="51.8273167871" lon="-1.8626612239"><ele>204.42</ele><time>2017-02-08T11:09:15Z</time></trkpt><trkpt lat="51.8273902126" lon="-1.8626159616"><ele>204.42</ele><time>2017-02-08T11:09:22Z</time></trkpt><trkpt lat="51.8274783902" lon="-1.8625453860"><ele>204.42</ele><time>2017-02-08T11:09:30Z</time></trkpt><trkpt lat="51.8276896980" lon="-1.8624398578"><ele>204.90</ele><time>2017-02-08T11:09:49Z</time></trkpt><trkpt lat="51.8279274926" lon="-1.8623339105"><ele>204.42</ele><time>2017-02-08T11:10:11Z</time></trkpt><trkpt lat="51.8281764351" lon="-1.8622480799"><ele>204.42</ele><time>2017-02-08T11:10:33Z</time></trkpt><trkpt lat="51.8283620104" lon="-1.8621440604"><ele>204.90</ele><time>2017-02-08T11:10:55Z</time></trkpt><trkpt lat="51.8285253737" lon="-1.8620806094"><ele>204.90</ele><time>2017-02-08T11:11:12Z</time></trkpt><trkpt lat="51.8286690395" lon="-1.8620024063"><ele>204.90</ele><time>2017-02-08T11:11:30Z</time></trkpt><trkpt lat="51.8288475741" lon="-1.8619388714"><ele>204.90</ele><time>2017-02-08T11:11:49Z</time></trkpt><trkpt lat="51.8290920742" lon="-1.8618350197"><ele>204.90</ele><time>2017-02-08T11:12:12Z</time></trkpt><trkpt lat="51.8292802479" lon="-1.8617314193"><ele>205.38</ele><time>2017-02-08T11:12:33Z</time></trkpt><trkpt lat="51.8294664938" lon="-1.8616352789"><ele>205.86</ele><time>2017-02-08T11:12:53Z</time></trkpt><trkpt lat="51.8297137599" lon="-1.8615324330"><ele>205.38</ele><time>2017-02-08T11:13:18Z</time></trkpt><trkpt lat="51.8299446814" lon="-1.8614471890"><ele>206.34</ele><time>2017-02-08T11:13:43Z</time></trkpt><trkpt lat="51.8301363755" lon="-1.8613417447"><ele>205.86</ele><time>2017-02-08T11:14:03Z</time></trkpt><trkpt lat="51.8303447496" lon="-1.8612448499"><ele>205.86</ele><time>2017-02-08T11:14:26Z</time></trkpt><trkpt lat="51.8305086158" lon="-1.8611819018"><ele>206.34</ele><time>2017-02-08T11:14:45Z</time></trkpt><trkpt lat="51.8306900840" lon="-1.8610931374"><ele>206.82</ele><time>2017-02-08T11:15:06Z</time></trkpt><trkpt lat="51.8308460712" lon="-1.8610244058"><ele>205.86</ele><time>2017-02-08T11:15:24Z</time></trkpt><trkpt lat="51.8310118653" lon="-1.8609420117"><ele>206.34</ele><time>2017-02-08T11:15:43Z</time></trkpt><trkpt lat="51.8312220834" lon="-1.8608539179"><ele>205.38</ele><time>2017-02-08T11:16:05Z</time></trkpt><trkpt lat="51.8314386718" lon="-1.8607497308"><ele>205.86</ele><time>2017-02-08T11:16:29Z</time></trkpt><trkpt lat="51.8316169549" lon="-1.8606723659"><ele>205.86</ele><time>2017-02-08T11:16:51Z</time></trkpt><trkpt lat="51.8318234850" lon="-1.8605779018"><ele>206.82</ele><time>2017-02-08T11:17:14Z</time></trkpt><trkpt lat="51.8320524786" lon="-1.8604656681"><ele>206.34</ele><time>2017-02-08T11:17:38Z</time></trkpt><trkpt lat="51.8322325218" lon="-1.8603856210"><ele>206.34</ele><time>2017-02-08T11:17:59Z</time></trkpt><trkpt lat="51.8324437458" lon="-1.8602987844"><ele>206.34</ele><time>2017-02-08T11:18:21Z</time></trkpt><trkpt lat="51.8326664530" lon="-1.8602082599"><ele>206.82</ele><time>2017-02-08T11:18:43Z</time></trkpt><trkpt lat="51.8328717258" lon="-1.8601165619"><ele>206.34</ele><time>2017-02-08T11:19:03Z</time></trkpt><trkpt lat="51.8330505118" lon="-1.8600004725"><ele>205.86</ele><time>2017-02-08T11:19:24Z</time></trkpt><trkpt lat="51.8331836164" lon="-1.8599452358"><ele>205.38</ele><time>2017-02-08T11:19:41Z</time></trkpt><trkpt lat="51.8333152961" lon="-1.8599226885"><ele>205.86</ele><time>2017-02-08T11:19:58Z</time></trkpt><trkpt lat="51.8333918229" lon="-1.8598821200"><ele>205.86</ele><time>2017-02-08T11:20:15Z</time></trkpt><trkpt lat="51.8334024679" lon="-1.8598709721"><ele>205.86</ele><time>2017-02-08T11:20:36Z</time></trkpt><trkpt lat="51.8334419467" lon="-1.8598492630"><ele>205.86</ele><time>2017-02-08T11:20:53Z</time></trkpt><trkpt lat="51.8334887177" lon="-1.8598706368"><ele>204.42</ele><time>2017-02-08T11:21:14Z</time></trkpt><trkpt lat="51.8336493149" lon="-1.8598485924"><ele>204.42</ele><time>2017-02-08T11:21:34Z</time></trkpt><trkpt lat="51.8337674998" lon="-1.8598138914"><ele>203.94</ele><time>2017-02-08T11:21:50Z</time></trkpt><trkpt lat="51.8338984251" lon="-1.8597935233"><ele>202.49</ele><time>2017-02-08T11:22:09Z</time></trkpt><trkpt lat="51.8339702580" lon="-1.8597895838"><ele>202.01</ele><time>2017-02-08T11:22:22Z</time></trkpt><trkpt lat="51.8340873532" lon="-1.8597482610"><ele>200.57</ele><time>2017-02-08T11:22:36Z</time></trkpt><trkpt lat="51.8342362996" lon="-1.8597334251"><ele>198.65</ele><time>2017-02-08T11:22:54Z</time></trkpt><trkpt lat="51.8344205339" lon="-1.8596770149"><ele>196.73</ele><time>2017-02-08T11:23:13Z</time></trkpt><trkpt lat="51.8345528841" lon="-1.8596198503"><ele>194.80</ele><time>2017-02-08T11:23:30Z</time></trkpt><trkpt lat="51.8346550595" lon="-1.8595518731"><ele>192.40</ele><time>2017-02-08T11:23:50Z</time></trkpt><trkpt lat="51.8347451650" lon="-1.8594978098"><ele>191.44</ele><time>2017-02-08T11:24:10Z</time></trkpt><trkpt lat="51.8347339332" lon="-1.8595329300"><ele>192.88</ele><time>2017-02-08T11:24:25Z</time></trkpt><trkpt lat="51.8347397167" lon="-1.8595359474"><ele>192.40</ele><time>2017-02-08T11:24:55Z</time></trkpt><trkpt lat="51.8347622640" lon="-1.8595100474"><ele>191.92</ele><time>2017-02-08T11:25:15Z</time></trkpt><trkpt lat="51.8348014913" lon="-1.8594654556"><ele>191.92</ele><time>2017-02-08T11:25:33Z</time></trkpt><trkpt lat="51.8348392937" lon="-1.8594389688"><ele>190.48</ele><time>2017-02-08T11:25:49Z</time></trkpt><trkpt lat="51.8348771799" lon="-1.8594248034"><ele>190.00</ele><time>2017-02-08T11:26:10Z</time></trkpt><trkpt lat="51.8348760065" lon="-1.8594268989"><ele>190.96</ele><time>2017-02-08T11:26:35Z</time></trkpt><trkpt lat="51.8348143995" lon="-1.8594430760"><ele>192.40</ele><time>2017-02-08T11:26:53Z</time></trkpt><trkpt lat="51.8348080292" lon="-1.8594513740"><ele>191.44</ele><time>2017-02-08T11:27:16Z</time></trkpt><trkpt lat="51.8348109629" lon="-1.8594419863"><ele>191.92</ele><time>2017-02-08T11:27:36Z</time></trkpt><trkpt lat="51.8348253798" lon="-1.8594310060"><ele>190.00</ele><time>2017-02-08T11:27:57Z</time></trkpt><trkpt lat="51.8348434009" lon="-1.8594192713"><ele>189.52</ele><time>2017-02-08T11:28:21Z</time></trkpt><trkpt lat="51.8348741625" lon="-1.8593749311"><ele>188.56</ele><time>2017-02-08T11:28:43Z</time></trkpt><trkpt lat="51.8349762540" lon="-1.8593046907"><ele>187.11</ele><time>2017-02-08T11:29:06Z</time></trkpt><trkpt lat="51.8351043295" lon="-1.8592197821"><ele>186.15</ele><time>2017-02-08T11:29:23Z</time></trkpt><trkpt lat="51.8352168147" lon="-1.8591625337"><ele>184.71</ele><time>2017-02-08T11:29:43Z</time></trkpt><trkpt lat="51.8352344166" lon="-1.8591454346"><ele>184.23</ele><time>2017-02-08T11:30:02Z</time></trkpt><trkpt lat="51.8353027292" lon="-1.8590635434"><ele>183.75</ele><time>2017-02-08T11:30:25Z</time></trkpt><trkpt lat="51.8353855424" lon="-1.8590297643"><ele>182.79</ele><time>2017-02-08T11:30:48Z</time></trkpt><trkpt lat="51.8353973608" lon="-1.8590145092"><ele>182.31</ele><time>2017-02-08T11:31:10Z</time></trkpt><trkpt lat="51.8355404399" lon="-1.8589604460"><ele>180.38</ele><time>2017-02-08T11:31:27Z</time></trkpt><trkpt lat="51.8356848601" lon="-1.8588755373"><ele>178.46</ele><time>2017-02-08T11:31:47Z</time></trkpt><trkpt lat="51.8358515762" lon="-1.8588359747"><ele>177.02</ele><time>2017-02-08T11:32:08Z</time></trkpt><trkpt lat="51.8360232376" lon="-1.8587798998"><ele>176.06</ele><time>2017-02-08T11:32:28Z</time></trkpt><trkpt lat="51.8362028617" lon="-1.8587462045"><ele>175.58</ele><time>2017-02-08T11:32:47Z</time></trkpt><trkpt lat="51.8363541551" lon="-1.8587095756"><ele>175.10</ele><time>2017-02-08T11:33:07Z</time></trkpt><trkpt lat="51.8364317715" lon="-1.8586916383"><ele>174.62</ele><time>2017-02-08T11:33:26Z</time></trkpt><trkpt lat="51.8364274967" lon="-1.8586958293"><ele>174.14</ele><time>2017-02-08T11:33:50Z</time></trkpt><trkpt lat="51.8364829011" lon="-1.8585487269"><ele>174.14</ele><time>2017-02-08T11:34:07Z</time></trkpt><trkpt lat="51.8365500402" lon="-1.8583236728"><ele>175.58</ele><time>2017-02-08T11:34:25Z</time></trkpt><trkpt lat="51.8365656305" lon="-1.8582428712"><ele>175.10</ele><time>2017-02-08T11:34:31Z</time></trkpt><trkpt lat="51.8366340268" lon="-1.8579610717"><ele>175.58</ele><time>2017-02-08T11:34:50Z</time></trkpt><trkpt lat="51.8366419896" lon="-1.8578645121"><ele>175.58</ele><time>2017-02-08T11:34:56Z</time></trkpt><trkpt lat="51.8366687279" lon="-1.8576878216"><ele>175.58</ele><time>2017-02-08T11:35:08Z</time></trkpt><trkpt lat="51.8367460091" lon="-1.8574333470"><ele>174.62</ele><time>2017-02-08T11:35:26Z</time></trkpt><trkpt lat="51.8367803749" lon="-1.8572124001"><ele>175.58</ele><time>2017-02-08T11:35:43Z</time></trkpt><trkpt lat="51.8368633557" lon="-1.8569661397"><ele>175.58</ele><time>2017-02-08T11:36:00Z</time></trkpt><trkpt lat="51.8369148206" lon="-1.8568449374"><ele>175.58</ele><time>2017-02-08T11:36:18Z</time></trkpt><trkpt lat="51.8370048422" lon="-1.8566644751"><ele>175.58</ele><time>2017-02-08T11:36:37Z</time></trkpt><trkpt lat="51.8370889965" lon="-1.8565608747"><ele>176.06</ele><time>2017-02-08T11:36:55Z</time></trkpt><trkpt lat="51.8370877393" lon="-1.8565563485"><ele>175.58</ele><time>2017-02-08T11:37:06Z</time></trkpt><trkpt lat="51.8371009827" lon="-1.8565328792"><ele>175.58</ele><time>2017-02-08T11:37:24Z</time></trkpt><trkpt lat="51.8371808622" lon="-1.8564285245"><ele>176.06</ele><time>2017-02-08T11:37:34Z</time></trkpt><trkpt lat="51.8373215105" lon="-1.8562285323"><ele>176.54</ele><time>2017-02-08T11:37:52Z</time></trkpt><trkpt lat="51.8374189083" lon="-1.8562141154"><ele>176.06</ele><time>2017-02-08T11:38:07Z</time></trkpt><trkpt lat="51.8374760728" lon="-1.8561032228"><ele>176.54</ele><time>2017-02-08T11:38:23Z</time></trkpt><trkpt lat="51.8377116881" lon="-1.8559347466"><ele>179.42</ele><time>2017-02-08T11:38:43Z</time></trkpt><trkpt lat="51.8377706967" lon="-1.8558927532"><ele>179.42</ele><time>2017-02-08T11:38:49Z</time></trkpt><trkpt lat="51.8378961738" lon="-1.8558042403"><ele>181.35</ele><time>2017-02-08T11:39:06Z</time></trkpt><trkpt lat="51.8380780611" lon="-1.8557316530"><ele>184.23</ele><time>2017-02-08T11:39:25Z</time></trkpt><trkpt lat="51.8383141793" lon="-1.8556300644"><ele>186.15</ele><time>2017-02-08T11:39:46Z</time></trkpt><trkpt lat="51.8385314383" lon="-1.8555119634"><ele>189.52</ele><time>2017-02-08T11:40:05Z</time></trkpt><trkpt lat="51.8386259861" lon="-1.8554683775"><ele>190.48</ele><time>2017-02-08T11:40:14Z</time></trkpt><trkpt lat="51.8388752639" lon="-1.8553771824"><ele>193.84</ele><time>2017-02-08T11:40:37Z</time></trkpt><trkpt lat="51.8391278945" lon="-1.8552805390"><ele>196.73</ele><time>2017-02-08T11:41:00Z</time></trkpt><trkpt lat="51.8391983025" lon="-1.8552755937"><ele>197.69</ele><time>2017-02-08T11:41:07Z</time></trkpt><trkpt lat="51.8392726500" lon="-1.8552548066"><ele>198.17</ele><time>2017-02-08T11:41:27Z</time></trkpt><trkpt lat="51.8392704707" lon="-1.8552472629"><ele>198.65</ele><time>2017-02-08T11:41:51Z</time></trkpt><trkpt lat="51.8393769208" lon="-1.8551709875"><ele>199.13</ele><time>2017-02-08T11:42:07Z</time></trkpt><trkpt lat="51.8393775076" lon="-1.8550845701"><ele>199.61</ele><time>2017-02-08T11:42:23Z</time></trkpt><trkpt lat="51.8393702991" lon="-1.8550877552"><ele>200.09</ele><time>2017-02-08T11:42:32Z</time></trkpt><trkpt lat="51.8393600732" lon="-1.8548648804"><ele>199.13</ele><time>2017-02-08T11:42:49Z</time></trkpt><trkpt lat="51.8392873183" lon="-1.8545629643"><ele>200.57</ele><time>2017-02-08T11:43:07Z</time></trkpt><trkpt lat="51.8392291479" lon="-1.8542863615"><ele>200.57</ele><time>2017-02-08T11:43:29Z</time></trkpt><trkpt lat="51.8391812034" lon="-1.8540746346"><ele>201.53</ele><time>2017-02-08T11:43:46Z</time></trkpt><trkpt lat="51.8391116336" lon="-1.8538267817"><ele>200.57</ele><time>2017-02-08T11:44:05Z</time></trkpt><trkpt lat="51.8390755076" lon="-1.8535875622"><ele>200.57</ele><time>2017-02-08T11:44:21Z</time></trkpt><trkpt lat="51.8390040938" lon="-1.8533007335"><ele>198.17</ele><time>2017-02-08T11:44:40Z</time></trkpt><trkpt lat="51.8389725778" lon="-1.8530881684"><ele>197.69</ele><time>2017-02-08T11:44:56Z</time></trkpt><trkpt lat="51.8389392179" lon="-1.8529666308"><ele>196.73</ele><time>2017-02-08T11:45:04Z</time></trkpt><trkpt lat="51.8388831429" lon="-1.8527412415"><ele>195.77</ele><time>2017-02-08T11:45:20Z</time></trkpt><trkpt lat="51.8388388865" lon="-1.8525291793"><ele>194.80</ele><time>2017-02-08T11:45:35Z</time></trkpt><trkpt lat="51.8388448376" lon="-1.8524421751"><ele>194.32</ele><time>2017-02-08T11:45:48Z</time></trkpt><trkpt lat="51.8388046045" lon="-1.8522876129"><ele>193.84</ele><time>2017-02-08T11:46:03Z</time></trkpt><trkpt lat="51.8387185223" lon="-1.8520563561"><ele>193.36</ele><time>2017-02-08T11:46:21Z</time></trkpt><trkpt lat="51.8386055343" lon="-1.8518494908"><ele>192.40</ele><time>2017-02-08T11:46:37Z</time></trkpt><trkpt lat="51.8384268321" lon="-1.8516808469"><ele>192.88</ele><time>2017-02-08T11:46:57Z</time></trkpt><trkpt lat="51.8383044563" lon="-1.8515583035"><ele>192.40</ele><time>2017-02-08T11:47:13Z</time></trkpt><trkpt lat="51.8381425180" lon="-1.8514271267"><ele>191.92</ele><time>2017-02-08T11:47:30Z</time></trkpt><trkpt lat="51.8381227367" lon="-1.8514128774"><ele>191.92</ele><time>2017-02-08T11:47:32Z</time></trkpt><trkpt lat="51.8379560206" lon="-1.8512582313"><ele>190.48</ele><time>2017-02-08T11:47:50Z</time></trkpt><trkpt lat="51.8377852812" lon="-1.8511075247"><ele>190.48</ele><time>2017-02-08T11:48:10Z</time></trkpt><trkpt lat="51.8376409449" lon="-1.8509501964"><ele>190.00</ele><time>2017-02-08T11:48:29Z</time></trkpt><trkpt lat="51.8375070859" lon="-1.8507348653"><ele>190.00</ele><time>2017-02-08T11:48:47Z</time></trkpt><trkpt lat="51.8375775777" lon="-1.8508595880"><ele>190.48</ele><time>2017-02-08T11:49:06Z</time></trkpt><trkpt lat="51.8374614883" lon="-1.8507248908"><ele>190.00</ele><time>2017-02-08T11:49:23Z</time></trkpt><trkpt lat="51.8373518530" lon="-1.8506285828"><ele>189.52</ele><time>2017-02-08T11:49:38Z</time></trkpt><trkpt lat="51.8372304831" lon="-1.8504140060"><ele>190.00</ele><time>2017-02-08T11:49:55Z</time></trkpt><trkpt lat="51.8371447362" lon="-1.8501701765"><ele>190.00</ele><time>2017-02-08T11:50:10Z</time></trkpt><trkpt lat="51.8370710593" lon="-1.8499497324"><ele>190.48</ele><time>2017-02-08T11:50:25Z</time></trkpt><trkpt lat="51.8370272219" lon="-1.8498229980"><ele>190.00</ele><time>2017-02-08T11:50:40Z</time></trkpt><trkpt lat="51.8369713984" lon="-1.8497887161"><ele>190.00</ele><time>2017-02-08T11:50:57Z</time></trkpt><trkpt lat="51.8369163293" lon="-1.8496235926"><ele>189.52</ele><time>2017-02-08T11:51:10Z</time></trkpt><trkpt lat="51.8368527107" lon="-1.8494541105"><ele>189.52</ele><time>2017-02-08T11:51:26Z</time></trkpt><trkpt lat="51.8367968034" lon="-1.8491873145"><ele>189.52</ele><time>2017-02-08T11:51:43Z</time></trkpt><trkpt lat="51.8367910199" lon="-1.8491746578"><ele>190.00</ele><time>2017-02-08T11:51:44Z</time></trkpt><trkpt lat="51.8367303349" lon="-1.8489419762"><ele>190.00</ele><time>2017-02-08T11:52:01Z</time></trkpt><trkpt lat="51.8366217893" lon="-1.8487201072"><ele>189.52</ele><time>2017-02-08T11:52:17Z</time></trkpt><trkpt lat="51.8365400657" lon="-1.8484951369"><ele>189.52</ele><time>2017-02-08T11:52:32Z</time></trkpt><trkpt lat="51.8364605214" lon="-1.8482795544"><ele>188.56</ele><time>2017-02-08T11:52:48Z</time></trkpt><trkpt lat="51.8363618664" lon="-1.8480293546"><ele>187.11</ele><time>2017-02-08T11:53:04Z</time></trkpt><trkpt lat="51.8362683244" lon="-1.8477781489"><ele>185.67</ele><time>2017-02-08T11:53:20Z</time></trkpt><trkpt lat="51.8361657299" lon="-1.8475649972"><ele>185.19</ele><time>2017-02-08T11:53:36Z</time></trkpt><trkpt lat="51.8361472059" lon="-1.8475272786"><ele>185.19</ele><time>2017-02-08T11:53:39Z</time></trkpt><trkpt lat="51.8360994291" lon="-1.8474175595"><ele>185.19</ele><time>2017-02-08T11:53:46Z</time></trkpt><trkpt lat="51.8359636422" lon="-1.8472039886"><ele>185.67</ele><time>2017-02-08T11:54:04Z</time></trkpt><trkpt lat="51.8358607963" lon="-1.8470091093"><ele>186.15</ele><time>2017-02-08T11:54:22Z</time></trkpt><trkpt lat="51.8358372431" lon="-1.8469426408"><ele>186.15</ele><time>2017-02-08T11:54:29Z</time></trkpt><trkpt lat="51.8357540946" lon="-1.8467853963"><ele>186.15</ele><time>2017-02-08T11:54:44Z</time></trkpt><trkpt lat="51.8356934935" lon="-1.8466318399"><ele>187.11</ele><time>2017-02-08T11:55:00Z</time></trkpt><trkpt lat="51.8356216606" lon="-1.8464176822"><ele>186.63</ele><time>2017-02-08T11:55:17Z</time></trkpt><trkpt lat="51.8355432060" lon="-1.8461020198"><ele>186.63</ele><time>2017-02-08T11:55:35Z</time></trkpt><trkpt lat="51.8355298787" lon="-1.8459666520"><ele>187.11</ele><time>2017-02-08T11:55:51Z</time></trkpt><trkpt lat="51.8354966026" lon="-1.8456942402"><ele>186.63</ele><time>2017-02-08T11:56:13Z</time></trkpt><trkpt lat="51.8354423717" lon="-1.8453354109"><ele>186.15</ele><time>2017-02-08T11:56:33Z</time></trkpt><trkpt lat="51.8354264461" lon="-1.8449220154"><ele>186.63</ele><time>2017-02-08T11:56:54Z</time></trkpt><trkpt lat="51.8354041502" lon="-1.8445574865"><ele>185.67</ele><time>2017-02-08T11:57:12Z</time></trkpt><trkpt lat="51.8354541901" lon="-1.8443264812"><ele>186.15</ele><time>2017-02-08T11:57:31Z</time></trkpt><trkpt lat="51.8354868796" lon="-1.8442301732"><ele>186.15</ele><time>2017-02-08T11:57:49Z</time></trkpt><trkpt lat="51.8355013803" lon="-1.8439466972"><ele>185.67</ele><time>2017-02-08T11:58:07Z</time></trkpt><trkpt lat="51.8355225027" lon="-1.8436682504"><ele>185.67</ele><time>2017-02-08T11:58:23Z</time></trkpt><trkpt lat="51.8355235085" lon="-1.8436490558"><ele>185.19</ele><time>2017-02-08T11:58:24Z</time></trkpt><trkpt lat="51.8354903162" lon="-1.8434295338"><ele>185.67</ele><time>2017-02-08T11:58:35Z</time></trkpt><trkpt lat="51.8353667669" lon="-1.8429391924"><ele>185.67</ele><time>2017-02-08T11:58:52Z</time></trkpt><trkpt lat="51.8353046570" lon="-1.8427447323"><ele>186.15</ele><time>2017-02-08T11:59:07Z</time></trkpt><trkpt lat="51.8352091033" lon="-1.8424952030"><ele>186.15</ele><time>2017-02-08T11:59:23Z</time></trkpt><trkpt lat="51.8351149745" lon="-1.8422828894"><ele>184.71</ele><time>2017-02-08T11:59:38Z</time></trkpt><trkpt lat="51.8350148946" lon="-1.8420714978"><ele>184.23</ele><time>2017-02-08T11:59:55Z</time></trkpt><trkpt lat="51.8350037467" lon="-1.8420435023"><ele>184.23</ele><time>2017-02-08T11:59:57Z</time></trkpt><trkpt lat="51.8348665349" lon="-1.8418010138"><ele>183.27</ele><time>2017-02-08T12:00:14Z</time></trkpt><trkpt lat="51.8347777706" lon="-1.8415894546"><ele>183.75</ele><time>2017-02-08T12:00:28Z</time></trkpt><trkpt lat="51.8346867431" lon="-1.8413963355"><ele>183.27</ele><time>2017-02-08T12:00:42Z</time></trkpt><trkpt lat="51.8346170057" lon="-1.8412402645"><ele>183.75</ele><time>2017-02-08T12:00:54Z</time></trkpt><trkpt lat="51.8345477711" lon="-1.8410673458"><ele>183.75</ele><time>2017-02-08T12:01:06Z</time></trkpt><trkpt lat="51.8345267326" lon="-1.8410155457"><ele>182.79</ele><time>2017-02-08T12:01:09Z</time></trkpt><trkpt lat="51.8344931211" lon="-1.8409091793"><ele>183.27</ele><time>2017-02-08T12:01:16Z</time></trkpt><trkpt lat="51.8344248086" lon="-1.8407029845"><ele>182.79</ele><time>2017-02-08T12:01:30Z</time></trkpt><trkpt lat="51.8343494553" lon="-1.8406021502"><ele>181.35</ele><time>2017-02-08T12:01:45Z</time></trkpt><trkpt lat="51.8342448492" lon="-1.8406575546"><ele>179.42</ele><time>2017-02-08T12:02:02Z</time></trkpt><trkpt lat="51.8341210485" lon="-1.8408038188"><ele>177.02</ele><time>2017-02-08T12:02:21Z</time></trkpt><trkpt lat="51.8339820765" lon="-1.8409677688"><ele>174.62</ele><time>2017-02-08T12:02:40Z</time></trkpt><trkpt lat="51.8338495586" lon="-1.8411309645"><ele>173.17</ele><time>2017-02-08T12:02:59Z</time></trkpt><trkpt lat="51.8337359838" lon="-1.8413861096"><ele>170.77</ele><time>2017-02-08T12:03:19Z</time></trkpt><trkpt lat="51.8335866183" lon="-1.8416473735"><ele>168.85</ele><time>2017-02-08T12:03:41Z</time></trkpt><trkpt lat="51.8334737141" lon="-1.8418725114"><ele>166.93</ele><time>2017-02-08T12:04:00Z</time></trkpt><trkpt lat="51.8333424535" lon="-1.8420667201"><ele>165.96</ele><time>2017-02-08T12:04:18Z</time></trkpt><trkpt lat="51.8332276214" lon="-1.8423081189"><ele>164.52</ele><time>2017-02-08T12:04:39Z</time></trkpt><trkpt lat="51.8330719694" lon="-1.8425323348"><ele>163.08</ele><time>2017-02-08T12:04:59Z</time></trkpt><trkpt lat="51.8329978734" lon="-1.8427438941"><ele>163.08</ele><time>2017-02-08T12:05:18Z</time></trkpt><trkpt lat="51.8329320755" lon="-1.8428578041"><ele>162.60</ele><time>2017-02-08T12:05:35Z</time></trkpt><trkpt lat="51.8329300638" lon="-1.8428698741"><ele>163.08</ele><time>2017-02-08T12:05:36Z</time></trkpt><trkpt lat="51.8328166567" lon="-1.8429907411"><ele>162.60</ele><time>2017-02-08T12:05:53Z</time></trkpt><trkpt lat="51.8327294849" lon="-1.8430555332"><ele>163.08</ele><time>2017-02-08T12:06:09Z</time></trkpt><trkpt lat="51.8326536287" lon="-1.8430055771"><ele>163.08</ele><time>2017-02-08T12:06:22Z</time></trkpt><trkpt lat="51.8326481804" lon="-1.8429769948"><ele>162.12</ele><time>2017-02-08T12:06:24Z</time></trkpt><trkpt lat="51.8325571530" lon="-1.8427309021"><ele>161.64</ele><time>2017-02-08T12:06:40Z</time></trkpt><trkpt lat="51.8324600067" lon="-1.8424252979"><ele>160.68</ele><time>2017-02-08T12:07:01Z</time></trkpt><trkpt lat="51.8323571607" lon="-1.8421469349"><ele>159.72</ele><time>2017-02-08T12:07:20Z</time></trkpt><trkpt lat="51.8322845735" lon="-1.8418782949"><ele>160.20</ele><time>2017-02-08T12:07:37Z</time></trkpt><trkpt lat="51.8321810570" lon="-1.8415908795"><ele>159.24</ele><time>2017-02-08T12:07:56Z</time></trkpt><trkpt lat="51.8320652191" lon="-1.8413088284"><ele>159.72</ele><time>2017-02-08T12:08:17Z</time></trkpt><trkpt lat="51.8320262432" lon="-1.8411509134"><ele>159.24</ele><time>2017-02-08T12:08:29Z</time></trkpt><trkpt lat="51.8319411669" lon="-1.8409416173"><ele>159.24</ele><time>2017-02-08T12:08:46Z</time></trkpt><trkpt lat="51.8318526540" lon="-1.8406666070"><ele>158.75</ele><time>2017-02-08T12:09:05Z</time></trkpt><trkpt lat="51.8317868561" lon="-1.8404651061"><ele>158.27</ele><time>2017-02-08T12:09:21Z</time></trkpt><trkpt lat="51.8317169510" lon="-1.8402302451"><ele>158.27</ele><time>2017-02-08T12:09:38Z</time></trkpt><trkpt lat="51.8316462915" lon="-1.8400521297"><ele>157.79</ele><time>2017-02-08T12:09:54Z</time></trkpt><trkpt lat="51.8315757997" lon="-1.8399114814"><ele>157.31</ele><time>2017-02-08T12:10:10Z</time></trkpt><trkpt lat="51.8315148633" lon="-1.8397922069"><ele>158.27</ele><time>2017-02-08T12:10:26Z</time></trkpt><trkpt lat="51.8314682599" lon="-1.8395979982"><ele>158.27</ele><time>2017-02-08T12:10:41Z</time></trkpt><trkpt lat="51.8313989416" lon="-1.8394363951"><ele>157.31</ele><time>2017-02-08T12:11:00Z</time></trkpt><trkpt lat="51.8313268572" lon="-1.8392062280"><ele>157.79</ele><time>2017-02-08T12:11:14Z</time></trkpt><trkpt lat="51.8312361650" lon="-1.8389847782"><ele>157.31</ele><time>2017-02-08T12:11:30Z</time></trkpt><trkpt lat="51.8311717082" lon="-1.8388341554"><ele>157.79</ele><time>2017-02-08T12:11:46Z</time></trkpt><trkpt lat="51.8310859613" lon="-1.8387364224"><ele>157.79</ele><time>2017-02-08T12:12:05Z</time></trkpt><trkpt lat="51.8310036510" lon="-1.8384746555"><ele>157.31</ele><time>2017-02-08T12:12:26Z</time></trkpt><trkpt lat="51.8309210055" lon="-1.8383272178"><ele>156.83</ele><time>2017-02-08T12:12:43Z</time></trkpt><trkpt lat="51.8309361767" lon="-1.8383495137"><ele>156.83</ele><time>2017-02-08T12:13:03Z</time></trkpt><trkpt lat="51.8309210893" lon="-1.8383264635"><ele>156.83</ele><time>2017-02-08T12:13:07Z</time></trkpt><trkpt lat="51.8308007251" lon="-1.8382473383"><ele>157.31</ele><time>2017-02-08T12:13:18Z</time></trkpt><trkpt lat="51.8307603244" lon="-1.8383262120"><ele>157.31</ele><time>2017-02-08T12:13:38Z</time></trkpt><trkpt lat="51.8308554590" lon="-1.8382770102"><ele>157.31</ele><time>2017-02-08T12:13:53Z</time></trkpt><trkpt lat="51.8307998031" lon="-1.8380810414"><ele>157.31</ele><time>2017-02-08T12:14:10Z</time></trkpt><trkpt lat="51.8307903316" lon="-1.8380298279"><ele>157.31</ele><time>2017-02-08T12:14:13Z</time></trkpt><trkpt lat="51.8306971248" lon="-1.8377415743"><ele>156.83</ele><time>2017-02-08T12:14:33Z</time></trkpt><trkpt lat="51.8305762578" lon="-1.8375541549"><ele>156.35</ele><time>2017-02-08T12:14:50Z</time></trkpt><trkpt lat="51.8305011559" lon="-1.8374113273"><ele>157.31</ele><time>2017-02-08T12:15:08Z</time></trkpt><trkpt lat="51.8303433247" lon="-1.8372824974"><ele>157.31</ele><time>2017-02-08T12:15:28Z</time></trkpt><trkpt lat="51.8301906902" lon="-1.8371589482"><ele>157.31</ele><time>2017-02-08T12:15:48Z</time></trkpt><trkpt lat="51.8301272392" lon="-1.8369718641"><ele>156.83</ele><time>2017-02-08T12:16:07Z</time></trkpt><trkpt lat="51.8301305920" lon="-1.8369680084"><ele>156.83</ele><time>2017-02-08T12:16:23Z</time></trkpt></trkseg></trk></gpx>